Time;durP1;ratioP1;P1;durP2;ratioP2;P2;SDS_P1;SDS_P2;PMS_P1;PMS_P2;Temp;Humidity;BMP_temperature;BMP_pressure;BME280_temperature;BME280_humidity;BME280_pressure;Samples;Min_cycle;Max_cycle;Signal;HPM_P1;HPM_P2
2023/06/07 00:00:29;;;;;;;22.55;5.00;;;;;;;;;;5101332;27;20052;-71
2023/06/07 00:02:56;;;;;;;16.90;4.65;;;;;;;;;;5104174;27;20058;-71
2023/06/07 00:05:23;;;;;;;16.52;4.72;;;;;;;;;;5103483;27;20055;-72
2023/06/07 00:07:49;;;;;;;16.85;5.38;;;;;;;;;;5105632;27;20063;-72
2023/06/07 00:10:15;;;;;;;18.73;4.85;;;;;;;;;;5105171;27;20047;-72
2023/06/07 00:12:41;;;;;;;21.30;4.57;;;;;;;;;;5103404;27;20611;-71
2023/06/07 00:15:08;;;;;;;15.55;4.88;;;;;;;;;;5103742;27;20138;-72
2023/06/07 00:17:37;;;;;;;19.77;4.50;;;;;;;;;;5104474;27;20086;-71
2023/06/07 00:20:04;;;;;;;13.05;4.60;;;;;;;;;;5104609;27;20058;-72
2023/06/07 00:22:33;;;;;;;16.92;3.65;;;;;;;;;;5099846;27;20042;-71
2023/06/07 00:25:00;;;;;;;15.82;4.03;;;;;;;;;;5104221;27;20130;-71
2023/06/07 00:27:26;;;;;;;17.20;4.30;;;;;;;;;;5086901;27;20050;-73
2023/06/07 00:29:52;;;;;;;17.77;4.35;;;;;;;;;;5099507;27;20047;-71
2023/06/07 00:32:18;;;;;;;19.05;4.80;;;;;;;;;;5101826;27;20035;-72
2023/06/07 00:34:44;;;;;;;17.88;4.57;;;;;;;;;;5100791;27;20047;-71
2023/06/07 00:37:10;;;;;;;20.25;5.22;;;;;;;;;;5104086;27;20046;-71
2023/06/07 00:39:37;;;;;;;19.50;4.15;;;;;;;;;;5103533;28;20047;-72
2023/06/07 00:42:05;;;;;;;18.10;5.35;;;;;;;;;;5113104;27;20035;-71
2023/06/07 00:44:31;;;;;;;18.00;4.45;;;;;;;;;;5105803;27;20507;-72
2023/06/07 00:46:57;;;;;;;25.17;5.20;;;;;;;;;;5109986;27;20043;-72
2023/06/07 00:49:23;;;;;;;19.30;4.22;;;;;;;;;;5111307;27;20039;-72
2023/06/07 00:51:50;;;;;;;17.92;4.55;;;;;;;;;;5109509;27;20510;-72
2023/06/07 00:54:17;;;;;;;20.23;4.40;;;;;;;;;;5119614;27;20043;-71
2023/06/07 00:56:50;;;;;;;17.05;4.32;;;;;;;;;;5111622;27;20047;-72
2023/06/07 00:59:19;;;;;;;19.88;4.47;;;;;;;;;;5113696;27;20092;-72
2023/06/07 01:01:47;;;;;;;20.08;4.53;;;;;;;;;;5113036;27;21992;-71
2023/06/07 01:04:13;;;;;;;15.20;4.07;;;;;;;;;;5108254;27;20070;-72
2023/06/07 01:06:39;;;;;;;21.50;5.10;;;;;;;;;;5108727;27;20050;-72
2023/06/07 01:09:12;;;;;;;18.13;4.95;;;;;;;;;;5094007;27;20497;-72
2023/06/07 01:11:40;;;;;;;23.70;5.13;;;;;;;;;;5108608;27;20055;-72
2023/06/07 01:14:07;;;;;;;19.80;5.28;;;;;;;;;;5108537;27;20039;-71
2023/06/07 01:16:33;;;;;;;19.17;5.43;;;;;;;;;;5110546;27;20048;-72
2023/06/07 01:19:02;;;;;;;24.10;5.50;;;;;;;;;;5107209;27;20043;-72
2023/06/07 01:21:29;;;;;;;17.98;4.18;;;;;;;;;;5109167;27;20505;-72
2023/06/07 01:23:56;;;;;;;13.65;4.50;;;;;;;;;;5104432;27;20090;-71
2023/06/07 01:26:26;;;;;;;18.55;4.85;;;;;;;;;;5105892;27;20055;-72
2023/06/07 01:28:53;;;;;;;19.65;4.70;;;;;;;;;;5107740;27;20055;-71
2023/06/07 01:31:21;;;;;;;23.15;4.30;;;;;;;;;;5107583;27;20040;-71
2023/06/07 01:33:48;;;;;;;16.73;4.50;;;;;;;;;;5108595;27;20157;-71
2023/06/07 01:36:14;;;;;;;19.15;4.25;;;;;;;;;;5107305;27;20095;-71
2023/06/07 01:38:41;;;;;;;21.75;5.90;;;;;;;;;;5108799;27;20169;-71
2023/06/07 01:41:08;;;;;;;15.88;3.92;;;;;;;;;;5110115;27;20151;-71
2023/06/07 01:43:35;;;;;;;15.38;4.15;;;;;;;;;;5109257;27;20035;-72
2023/06/07 01:46:02;;;;;;;11.93;4.20;;;;;;;;;;5108246;27;20039;-71
2023/06/07 01:48:28;;;;;;;16.73;4.43;;;;;;;;;;5104379;27;20393;-71
2023/06/07 01:50:54;;;;;;;14.68;4.53;;;;;;;;;;5105390;27;20031;-72
2023/06/07 01:53:20;;;;;;;13.23;3.95;;;;;;;;;;5109424;27;20027;-72
2023/06/07 01:55:47;;;;;;;25.48;4.90;;;;;;;;;;5108195;27;20039;-72
2023/06/07 01:58:46;;;;;;;17.75;4.50;;;;;;;;;;5108246;27;20044;-71
2023/06/07 02:01:38;;;;;;;16.75;4.45;;;;;;;;;;5060236;27;20082;-71
2023/06/07 02:04:05;;;;;;;15.80;4.20;;;;;;;;;;5085701;27;20487;-71
2023/06/07 02:06:33;;;;;;;22.17;4.43;;;;;;;;;;5109209;27;20042;-71
2023/06/07 02:09:02;;;;;;;17.42;3.85;;;;;;;;;;5104382;27;20043;-71
2023/06/07 02:11:29;;;;;;;18.77;4.28;;;;;;;;;;5109374;27;20184;-72
2023/06/07 02:13:56;;;;;;;18.77;5.00;;;;;;;;;;5093039;27;20574;-71
2023/06/07 02:16:35;;;;;;;28.33;5.35;;;;;;;;;;5106314;27;20040;-71
2023/06/07 02:19:04;;;;;;;19.63;5.35;;;;;;;;;;5105625;27;20138;-72
2023/06/07 02:21:32;;;;;;;27.73;5.32;;;;;;;;;;5111570;27;20147;-72
2023/06/07 02:23:58;;;;;;;16.55;4.63;;;;;;;;;;5106605;27;20066;-71
2023/06/07 02:26:25;;;;;;;21.85;6.05;;;;;;;;;;5109526;27;20028;-72
2023/06/07 02:28:51;;;;;;;16.63;5.25;;;;;;;;;;5108440;27;20996;-72
2023/06/07 02:31:20;;;;;;;20.65;5.07;;;;;;;;;;5108955;27;20107;-72
2023/06/07 02:33:47;;;;;;;13.35;4.32;;;;;;;;;;5111002;27;20043;-71
2023/06/07 02:36:13;;;;;;;19.55;4.70;;;;;;;;;;5105637;27;20484;-71
2023/06/07 02:38:39;;;;;;;16.90;4.40;;;;;;;;;;5105066;27;20057;-72
2023/06/07 02:41:06;;;;;;;17.85;4.22;;;;;;;;;;5104693;27;20511;-72
2023/06/07 02:43:32;;;;;;;24.25;5.68;;;;;;;;;;5106828;27;20275;-71
2023/06/07 02:45:58;;;;;;;21.30;5.07;;;;;;;;;;5107173;27;20490;-72
2023/06/07 02:48:24;;;;;;;18.75;4.93;;;;;;;;;;5107247;27;20047;-71
2023/06/07 02:50:50;;;;;;;22.02;5.07;;;;;;;;;;5104737;27;20050;-72
2023/06/07 02:53:16;;;;;;;21.50;4.57;;;;;;;;;;5102184;27;20129;-72
2023/06/07 02:55:42;;;;;;;14.45;3.60;;;;;;;;;;5104968;27;20039;-72
2023/06/07 02:58:08;;;;;;;17.67;4.63;;;;;;;;;;5101493;27;20077;-72
2023/06/07 03:00:34;;;;;;;17.98;4.10;;;;;;;;;;5099870;27;20134;-71
2023/06/07 03:03:00;;;;;;;13.75;3.75;;;;;;;;;;5103520;27;20043;-72
2023/06/07 03:05:28;;;;;;;24.48;5.18;;;;;;;;;;5099455;27;20082;-72
2023/06/07 03:07:56;;;;;;;20.65;4.95;;;;;;;;;;5097719;27;20040;-72
2023/06/07 03:10:23;;;;;;;20.75;4.70;;;;;;;;;;5097694;27;20183;-72
2023/06/07 03:12:49;;;;;;;15.90;5.18;;;;;;;;;;5090561;27;20043;-72
2023/06/07 03:15:15;;;;;;;22.13;5.03;;;;;;;;;;5098693;27;20126;-72
2023/06/07 03:17:42;;;;;;;18.88;5.47;;;;;;;;;;5101950;27;20154;-72
2023/06/07 03:20:09;;;;;;;16.75;3.80;;;;;;;;;;5099213;27;20070;-73
2023/06/07 03:22:38;;;;;;;18.67;4.10;;;;;;;;;;5097767;27;20059;-71
2023/06/07 03:25:05;;;;;;;18.50;4.65;;;;;;;;;;5086732;27;20047;-71
2023/06/07 03:27:32;;;;;;;13.32;4.38;;;;;;;;;;5099365;27;20076;-72
2023/06/07 03:30:02;;;;;;;24.15;4.35;;;;;;;;;;5099292;27;20069;-71
2023/06/07 03:32:28;;;;;;;24.17;4.60;;;;;;;;;;5099248;27;20533;-71
2023/06/07 03:34:54;;;;;;;17.63;3.83;;;;;;;;;;5100421;27;20047;-71
2023/06/07 03:37:20;;;;;;;20.77;4.45;;;;;;;;;;5096833;27;20082;-72
2023/06/07 03:39:46;;;;;;;21.67;4.53;;;;;;;;;;5098734;27;20043;-72
2023/06/07 03:42:12;;;;;;;26.15;5.32;;;;;;;;;;5101399;27;20068;-71
2023/06/07 03:44:38;;;;;;;17.13;4.72;;;;;;;;;;5100818;27;20134;-71
2023/06/07 03:47:04;;;;;;;18.02;5.25;;;;;;;;;;5082761;27;20055;-71
2023/06/07 03:49:30;;;;;;;16.20;4.10;;;;;;;;;;5098958;27;20093;-71
2023/06/07 03:51:57;;;;;;;17.38;4.18;;;;;;;;;;5096493;27;20046;-72
2023/06/07 03:54:23;;;;;;;18.63;4.65;;;;;;;;;;5099257;27;20039;-72
2023/06/07 03:56:49;;;;;;;20.52;4.63;;;;;;;;;;5095334;27;20814;-72
2023/06/07 03:59:19;;;;;;;14.68;4.40;;;;;;;;;;5092621;27;20329;-72
2023/06/07 04:01:45;;;;;;;11.60;3.63;;;;;;;;;;5091435;27;20376;-72
2023/06/07 04:04:11;;;;;;;20.27;4.47;;;;;;;;;;5092223;27;20073;-71
2023/06/07 04:06:39;;;;;;;17.52;4.45;;;;;;;;;;5090471;27;20511;-71
2023/06/07 04:09:06;;;;;;;20.20;5.18;;;;;;;;;;5094564;27;20099;-71
2023/06/07 04:11:33;;;;;;;21.75;5.07;;;;;;;;;;5094472;27;20050;-72
2023/06/07 04:13:59;;;;;;;21.45;4.50;;;;;;;;;;5097107;27;20050;-71
2023/06/07 04:16:25;;;;;;;13.88;4.43;;;;;;;;;;5096749;27;20116;-71
2023/06/07 04:18:51;;;;;;;12.48;3.80;;;;;;;;;;5095556;27;20078;-71
2023/06/07 04:21:18;;;;;;;15.82;4.00;;;;;;;;;;5090642;27;20038;-71
2023/06/07 04:23:44;;;;;;;17.13;4.28;;;;;;;;;;5094538;27;20608;-71
2023/06/07 04:35:07;;;;;;;16.48;4.10;;;;;;;;;;4878941;29;20070;-69
2023/06/07 04:37:33;;;;;;;15.98;3.45;;;;;;;;;;5247961;23;20063;-73
2023/06/07 04:43:07;;;;;;;16.33;4.35;;;;;;;;;;5350800;23;19931;-69
2023/06/07 04:45:33;;;;;;;18.05;4.13;;;;;;;;;;4889293;29;20063;-69
2023/06/07 04:48:11;;;;;;;15.52;3.65;;;;;;;;;;4910242;29;20312;-69
2023/06/07 04:50:41;;;;;;;20.10;3.47;;;;;;;;;;4893491;29;20047;-67
2023/06/07 04:53:10;;;;;;;13.95;4.03;;;;;;;;;;4908610;29;20150;-66
2023/06/07 04:55:37;;;;;;;18.80;4.18;;;;;;;;;;4909305;29;20574;-70
2023/06/07 04:58:04;;;;;;;17.75;4.20;;;;;;;;;;4884630;29;20764;-67
2023/06/07 05:00:33;;;;;;;15.10;3.70;;;;;;;;;;4892297;29;20052;-70
2023/06/07 05:03:08;;;;;;;15.32;3.90;;;;;;;;;;4915340;29;20150;-71
2023/06/07 05:05:37;;;;;;;14.07;4.13;;;;;;;;;;4914347;29;20500;-70
2023/06/07 05:08:03;;;;;;;14.00;3.90;;;;;;;;;;4915794;29;20090;-70
2023/06/07 05:10:30;;;;;;;13.32;3.95;;;;;;;;;;4914619;29;20043;-71
2023/06/07 05:12:56;;;;;;;21.98;6.22;;;;;;;;;;4915870;29;20102;-71
2023/06/07 05:15:23;;;;;;;19.60;4.07;;;;;;;;;;4916853;29;20044;-70
2023/06/07 05:17:49;;;;;;;14.10;3.60;;;;;;;;;;4897056;29;20530;-70
2023/06/07 05:20:16;;;;;;;22.92;4.18;;;;;;;;;;4917235;29;20068;-71
2023/06/07 05:22:42;;;;;;;19.60;4.68;;;;;;;;;;4918233;29;20087;-72
2023/06/07 05:25:09;;;;;;;11.48;3.40;;;;;;;;;;4901074;29;20187;-72
2023/06/07 05:27:36;;;;;;;14.38;3.45;;;;;;;;;;4917081;29;20612;-71
2023/06/07 05:30:04;;;;;;;19.77;2.88;;;;;;;;;;4917775;29;20044;-71
2023/06/07 05:32:30;;;;;;;13.30;3.45;;;;;;;;;;4918219;28;20224;-72
2023/06/07 05:34:57;;;;;;;11.73;3.63;;;;;;;;;;4919804;29;20044;-71
2023/06/07 05:37:25;;;;;;;13.45;3.67;;;;;;;;;;4902057;29;20122;-71
2023/06/07 05:39:51;;;;;;;13.15;3.58;;;;;;;;;;4897741;29;20052;-71
2023/06/07 05:42:17;;;;;;;14.98;3.97;;;;;;;;;;4906507;28;20256;-71
2023/06/07 05:44:46;;;;;;;16.00;3.75;;;;;;;;;;4937326;28;20177;-72
2023/06/07 05:47:13;;;;;;;11.95;3.33;;;;;;;;;;4936959;28;20057;-71
2023/06/07 05:49:39;;;;;;;19.98;4.38;;;;;;;;;;4920360;28;20039;-71
2023/06/07 05:52:06;;;;;;;12.30;3.55;;;;;;;;;;4937182;28;20126;-71
2023/06/07 05:54:32;;;;;;;14.75;3.47;;;;;;;;;;4920765;28;20507;-71
2023/06/07 05:56:58;;;;;;;11.32;3.80;;;;;;;;;;4921836;28;20043;-72
2023/06/07 05:59:24;;;;;;;11.73;3.08;;;;;;;;;;4933599;28;20056;-68
2023/06/07 06:01:52;;;;;;;17.67;3.70;;;;;;;;;;4917900;28;20657;-68
2023/06/07 06:04:18;;;;;;;10.93;3.35;;;;;;;;;;4917670;28;20057;-68
2023/06/07 06:06:44;;;;;;;23.15;4.00;;;;;;;;;;4916465;28;20115;-68
2023/06/07 06:09:10;;;;;;;11.20;3.03;;;;;;;;;;4933469;28;20042;-68
2023/06/07 06:11:36;;;;;;;14.13;3.45;;;;;;;;;;4916163;28;20134;-68
2023/06/07 06:14:02;;;;;;;17.77;3.03;;;;;;;;;;4918269;28;20043;-69
2023/06/07 06:16:28;;;;;;;9.40;2.92;;;;;;;;;;4932379;28;20131;-68
2023/06/07 06:18:54;;;;;;;14.63;3.55;;;;;;;;;;4912706;28;20058;-68
2023/06/07 06:21:20;;;;;;;12.68;3.45;;;;;;;;;;4912887;28;20047;-68
2023/06/07 06:23:47;;;;;;;12.57;3.40;;;;;;;;;;4932387;28;20717;-68
2023/06/07 06:26:13;;;;;;;13.75;3.88;;;;;;;;;;4931698;28;20625;-68
2023/06/07 06:28:39;;;;;;;9.70;3.10;;;;;;;;;;4929848;28;20085;-68
2023/06/07 06:31:06;;;;;;;10.23;2.70;;;;;;;;;;4932366;28;20047;-68
2023/06/07 06:33:32;;;;;;;12.15;3.95;;;;;;;;;;4932386;28;20047;-68
2023/06/07 06:35:59;;;;;;;15.50;2.83;;;;;;;;;;4916977;28;20039;-68
2023/06/07 06:38:25;;;;;;;14.60;3.78;;;;;;;;;;4916956;28;20159;-68
2023/06/07 06:40:51;;;;;;;11.10;2.97;;;;;;;;;;4916440;28;20093;-68
2023/06/07 06:43:18;;;;;;;13.98;2.97;;;;;;;;;;4931451;28;20055;-68
2023/06/07 06:45:44;;;;;;;12.18;4.25;;;;;;;;;;4932106;28;20936;-68
2023/06/07 06:48:10;;;;;;;12.32;3.20;;;;;;;;;;4931262;28;20134;-68
2023/06/07 06:50:36;;;;;;;14.23;3.42;;;;;;;;;;4916106;28;20040;-68
2023/06/07 06:53:02;;;;;;;17.00;3.45;;;;;;;;;;4930546;28;20047;-68
2023/06/07 06:55:29;;;;;;;15.45;3.70;;;;;;;;;;4931274;28;20047;-68
2023/06/07 06:57:55;;;;;;;10.25;3.80;;;;;;;;;;4932265;28;20053;-68
2023/06/07 07:00:23;;;;;;;9.00;3.03;;;;;;;;;;4917867;28;20066;-68
2023/06/07 07:02:49;;;;;;;10.95;3.60;;;;;;;;;;4931909;28;20648;-68
2023/06/07 07:05:16;;;;;;;17.05;3.58;;;;;;;;;;4933224;28;20047;-68
2023/06/07 07:07:42;;;;;;;13.77;3.28;;;;;;;;;;4933497;28;20039;-69
2023/06/07 07:10:08;;;;;;;10.27;3.35;;;;;;;;;;4930064;28;20805;-68
2023/06/07 07:12:39;;;;;;;12.65;3.70;;;;;;;;;;4921834;28;20084;-68
2023/06/07 07:15:05;;;;;;;9.05;2.83;;;;;;;;;;4932160;28;20038;-69
2023/06/07 07:17:32;;;;;;;16.30;3.85;;;;;;;;;;4895535;28;20047;-70
2023/06/07 07:19:58;;;;;;;9.88;3.20;;;;;;;;;;4919254;28;20974;-67
2023/06/07 07:22:24;;;;;;;12.70;3.83;;;;;;;;;;4930979;28;22116;-68
2023/06/07 07:24:51;;;;;;;10.73;3.28;;;;;;;;;;4931687;28;20074;-68
2023/06/07 07:27:19;;;;;;;10.85;3.38;;;;;;;;;;4930452;28;20644;-68
2023/06/07 07:29:46;;;;;;;15.48;3.22;;;;;;;;;;4931488;28;20047;-68
2023/06/07 07:32:13;;;;;;;16.98;3.13;;;;;;;;;;4931740;28;20051;-68
2023/06/07 07:34:39;;;;;;;9.60;3.05;;;;;;;;;;4931837;28;20141;-68
2023/06/07 07:37:06;;;;;;;16.40;3.97;;;;;;;;;;4932185;28;20110;-68
2023/06/07 07:39:32;;;;;;;11.48;3.85;;;;;;;;;;4914546;28;20479;-68
2023/06/07 07:41:58;;;;;;;7.65;3.40;;;;;;;;;;4931404;28;20158;-68
2023/06/07 07:44:24;;;;;;;13.50;3.60;;;;;;;;;;4929692;28;20066;-68
2023/06/07 07:46:50;;;;;;;7.30;3.03;;;;;;;;;;4933189;28;20054;-68
2023/06/07 07:49:16;;;;;;;16.92;3.92;;;;;;;;;;4912041;28;20101;-68
2023/06/07 07:51:42;;;;;;;8.52;3.13;;;;;;;;;;4933153;28;20597;-69
2023/06/07 07:54:09;;;;;;;11.95;3.55;;;;;;;;;;4933162;28;20043;-68
2023/06/07 07:56:35;;;;;;;12.57;4.03;;;;;;;;;;4914564;28;20046;-68
2023/06/07 07:59:01;;;;;;;6.20;2.92;;;;;;;;;;4932270;28;20089;-68
2023/06/07 08:01:27;;;;;;;10.52;3.90;;;;;;;;;;4914146;28;20893;-68
2023/06/07 08:03:53;;;;;;;15.30;3.47;;;;;;;;;;4931952;28;20384;-69
2023/06/07 08:06:20;;;;;;;17.88;3.55;;;;;;;;;;4916621;28;20039;-69
2023/06/07 08:08:49;;;;;;;12.40;3.70;;;;;;;;;;4932008;28;20163;-68
2023/06/07 08:11:15;;;;;;;12.23;3.30;;;;;;;;;;4916542;28;20147;-68
2023/06/07 08:13:41;;;;;;;10.52;3.28;;;;;;;;;;4932901;28;20047;-68
2023/06/07 08:16:07;;;;;;;16.77;3.60;;;;;;;;;;4929287;28;20043;-68
2023/06/07 08:18:33;;;;;;;10.57;3.50;;;;;;;;;;4931834;28;20079;-68
2023/06/07 08:21:00;;;;;;;12.55;3.78;;;;;;;;;;4932641;28;20038;-67
2023/06/07 08:23:26;;;;;;;12.02;3.30;;;;;;;;;;4898422;28;20070;-67
2023/06/07 08:25:53;;;;;;;10.82;3.22;;;;;;;;;;4932976;28;20039;-68
2023/06/07 08:28:19;;;;;;;13.13;3.33;;;;;;;;;;4933696;28;20043;-68
2023/06/07 08:30:45;;;;;;;10.00;2.88;;;;;;;;;;4930747;28;20787;-68
2023/06/07 08:33:12;;;;;;;12.40;3.13;;;;;;;;;;4916514;28;20051;-68
2023/06/07 08:35:38;;;;;;;19.70;3.88;;;;;;;;;;4931230;28;20051;-68
2023/06/07 08:38:04;;;;;;;17.80;4.00;;;;;;;;;;4933946;28;20359;-68
2023/06/07 08:40:32;;;;;;;16.92;3.72;;;;;;;;;;4932918;28;20043;-68
2023/06/07 08:42:58;;;;;;;14.70;3.75;;;;;;;;;;4933423;28;20059;-68
2023/06/07 08:45:24;;;;;;;9.95;3.45;;;;;;;;;;4916319;28;20062;-68
2023/06/07 08:47:51;;;;;;;8.98;3.58;;;;;;;;;;4896200;28;20043;-68
2023/06/07 08:50:18;;;;;;;13.23;3.58;;;;;;;;;;4915788;28;20055;-68
2023/06/07 08:52:48;;;;;;;12.57;3.97;;;;;;;;;;4919412;28;20082;-68
2023/06/07 08:55:14;;;;;;;10.18;2.92;;;;;;;;;;4932709;28;20451;-68
2023/06/07 08:57:41;;;;;;;14.13;3.58;;;;;;;;;;4916919;28;20491;-68
2023/06/07 09:00:08;;;;;;;14.18;4.10;;;;;;;;;;4915572;28;20130;-68
2023/06/07 09:02:35;;;;;;;12.00;3.83;;;;;;;;;;4928505;28;20082;-68
2023/06/07 09:05:01;;;;;;;9.90;3.65;;;;;;;;;;4932343;28;20046;-68
2023/06/07 09:07:28;;;;;;;15.15;3.45;;;;;;;;;;4914001;28;20447;-68
2023/06/07 09:09:54;;;;;;;13.88;4.03;;;;;;;;;;4918546;28;20459;-68
2023/06/07 09:12:20;;;;;;;11.60;3.17;;;;;;;;;;4918188;28;20049;-68
2023/06/07 09:14:47;;;;;;;12.55;3.45;;;;;;;;;;4937371;28;20050;-68
2023/06/07 09:17:13;;;;;;;13.35;3.60;;;;;;;;;;4936397;28;20051;-69
2023/06/07 09:19:40;;;;;;;14.88;3.83;;;;;;;;;;4936952;28;20418;-68
2023/06/07 09:22:08;;;;;;;13.85;4.45;;;;;;;;;;4937085;28;20090;-68
2023/06/07 09:24:34;;;;;;;11.75;3.10;;;;;;;;;;4914162;28;20221;-68
2023/06/07 09:27:02;;;;;;;11.18;3.35;;;;;;;;;;4935450;28;21770;-68
2023/06/07 09:29:29;;;;;;;14.23;3.70;;;;;;;;;;4934810;28;20066;-68
2023/06/07 09:32:17;;;;;;;13.27;3.60;;;;;;;;;;4934186;28;20083;-68
2023/06/07 09:34:43;;;;;;;13.35;5.07;;;;;;;;;;4936636;28;20175;-68
2023/06/07 09:37:09;;;;;;;13.02;3.15;;;;;;;;;;4913385;28;20044;-68
2023/06/07 09:39:37;;;;;;;17.23;3.72;;;;;;;;;;4919205;28;20054;-68
2023/06/07 09:42:13;;;;;;;12.18;3.58;;;;;;;;;;4918543;28;20054;-68
2023/06/07 09:44:39;;;;;;;16.02;3.85;;;;;;;;;;4931342;28;20043;-67
2023/06/07 09:47:07;;;;;;;11.50;3.35;;;;;;;;;;4923030;28;20648;-68
2023/06/07 09:49:35;;;;;;;11.25;3.90;;;;;;;;;;4915231;28;20555;-68
2023/06/07 09:52:02;;;;;;;9.25;3.40;;;;;;;;;;4923517;28;20070;-68
2023/06/07 09:54:36;;;;;;;11.63;3.30;;;;;;;;;;4911377;29;20122;-68
2023/06/07 09:57:04;;;;;;;14.05;3.75;;;;;;;;;;4925704;28;20044;-68
2023/06/07 09:59:30;;;;;;;13.88;3.80;;;;;;;;;;4894615;28;20055;-68
2023/06/07 10:01:56;;;;;;;10.98;3.80;;;;;;;;;;4928424;28;20043;-68
2023/06/07 10:04:22;;;;;;;13.73;4.15;;;;;;;;;;4928427;28;20039;-67
2023/06/07 10:06:50;;;;;;;15.90;4.15;;;;;;;;;;4929959;28;20044;-68
2023/06/07 10:09:17;;;;;;;10.25;3.72;;;;;;;;;;4926590;28;20404;-67
2023/06/07 10:11:45;;;;;;;11.73;3.55;;;;;;;;;;4928225;28;20119;-68
2023/06/07 10:14:12;;;;;;;16.13;4.30;;;;;;;;;;4913252;28;20732;-68
2023/06/07 10:16:45;;;;;;;11.15;3.58;;;;;;;;;;4932033;28;20075;-71
2023/06/07 10:19:17;;;;;;;15.15;4.00;;;;;;;;;;4911909;29;20055;-71
2023/06/07 10:21:46;;;;;;;16.20;4.40;;;;;;;;;;4924532;28;20454;-71
2023/06/07 10:24:13;;;;;;;15.13;4.07;;;;;;;;;;4932844;28;20481;-72
2023/06/07 10:26:49;;;;;;;14.60;3.78;;;;;;;;;;4927052;28;20110;-71
2023/06/07 10:29:18;;;;;;;13.25;4.45;;;;;;;;;;4932634;28;20050;-71
2023/06/07 10:31:48;;;;;;;11.93;3.45;;;;;;;;;;4932952;28;20039;-71
2023/06/07 10:34:15;;;;;;;12.25;3.05;;;;;;;;;;4926426;28;20230;-71
2023/06/07 10:36:41;;;;;;;12.63;3.90;;;;;;;;;;4927668;28;20098;-72
2023/06/07 10:39:10;;;;;;;17.42;4.35;;;;;;;;;;4925319;28;20042;-72
2023/06/07 10:41:37;;;;;;;16.95;4.22;;;;;;;;;;4916136;28;20641;-72
2023/06/07 10:44:03;;;;;;;11.68;3.63;;;;;;;;;;4934076;28;20415;-73
2023/06/07 10:46:29;;;;;;;13.15;3.97;;;;;;;;;;4938612;28;20129;-72
2023/06/07 10:48:56;;;;;;;13.70;3.95;;;;;;;;;;4937122;28;20822;-73
2023/06/07 10:51:41;;;;;;;13.73;4.50;;;;;;;;;;4920780;28;20043;-72
2023/06/07 10:54:08;;;;;;;20.10;4.10;;;;;;;;;;4935494;28;20121;-72
2023/06/07 10:56:37;;;;;;;15.77;3.95;;;;;;;;;;4919026;28;20047;-72
2023/06/07 10:59:16;;;;;;;12.88;3.67;;;;;;;;;;4937335;28;20126;-72
2023/06/07 11:01:44;;;;;;;10.15;3.58;;;;;;;;;;4919248;28;20051;-72
2023/06/07 11:04:37;;;;;;;11.10;3.67;;;;;;;;;;4937598;28;20051;-71
2023/06/07 11:07:20;;;;;;;14.80;4.67;;;;;;;;;;4922343;28;20221;-71
2023/06/07 11:09:48;;;;;;;12.55;4.10;;;;;;;;;;4917343;28;20046;-72
2023/06/07 11:12:33;;;;;;;12.57;3.78;;;;;;;;;;4902987;28;20448;-70
2023/06/07 11:15:20;;;;;;;11.57;3.60;;;;;;;;;;4920088;28;21627;-72
2023/06/07 11:17:49;;;;;;;15.05;4.18;;;;;;;;;;4917505;28;20051;-71
2023/06/07 11:20:35;;;;;;;13.85;4.30;;;;;;;;;;4920583;28;20066;-72
2023/06/07 11:23:21;;;;;;;19.77;4.32;;;;;;;;;;4921178;28;20652;-72
2023/06/07 11:25:47;;;;;;;9.18;3.30;;;;;;;;;;4935968;28;20342;-72
2023/06/07 11:28:13;;;;;;;12.40;3.53;;;;;;;;;;4906177;28;20047;-73
2023/06/07 11:30:45;;;;;;;15.15;3.60;;;;;;;;;;4935220;28;20576;-72
2023/06/07 11:33:21;;;;;;;13.35;3.67;;;;;;;;;;4938413;28;20410;-72
2023/06/07 11:35:51;;;;;;;11.50;3.63;;;;;;;;;;4919042;28;20120;-72
2023/06/07 11:38:17;;;;;;;20.30;3.75;;;;;;;;;;4904984;28;20043;-73
2023/06/07 11:40:44;;;;;;;15.00;3.97;;;;;;;;;;4920028;28;20054;-73
2023/06/07 11:43:11;;;;;;;11.75;3.42;;;;;;;;;;4936644;28;20066;-72
2023/06/07 11:45:39;;;;;;;14.60;3.95;;;;;;;;;;4936800;28;20470;-72
2023/06/07 11:48:06;;;;;;;10.43;3.53;;;;;;;;;;4937918;28;20039;-73
2023/06/07 11:50:34;;;;;;;13.13;3.47;;;;;;;;;;4919148;28;20113;-72
2023/06/07 11:53:00;;;;;;;11.27;4.03;;;;;;;;;;4935830;28;20069;-73
2023/06/07 11:55:26;;;;;;;11.88;3.60;;;;;;;;;;4937743;28;20049;-73
2023/06/07 11:57:53;;;;;;;9.05;3.63;;;;;;;;;;4916754;28;20130;-72
2023/06/07 12:00:23;;;;;;;13.27;4.25;;;;;;;;;;4918549;28;20087;-72
2023/06/07 12:02:53;;;;;;;14.90;3.70;;;;;;;;;;4935812;28;20097;-71
2023/06/07 12:05:20;;;;;;;15.60;4.70;;;;;;;;;;4935641;28;20038;-72
2023/06/07 12:07:55;;;;;;;14.55;3.67;;;;;;;;;;4936349;28;20057;-72
2023/06/07 12:10:24;;;;;;;12.00;3.20;;;;;;;;;;4935645;28;20055;-72
2023/06/07 12:13:09;;;;;;;12.95;3.63;;;;;;;;;;4916962;28;20044;-73
2023/06/07 12:15:41;;;;;;;11.40;3.47;;;;;;;;;;4935810;28;21670;-72
2023/06/07 12:18:10;;;;;;;18.58;4.13;;;;;;;;;;4936650;28;20057;-71
2023/06/07 12:20:36;;;;;;;11.55;4.68;;;;;;;;;;4918215;28;20047;-71
2023/06/07 12:23:03;;;;;;;12.73;4.35;;;;;;;;;;4931623;28;20464;-72
2023/06/07 12:25:29;;;;;;;14.57;3.90;;;;;;;;;;4935596;28;20643;-73
2023/06/07 12:27:55;;;;;;;12.88;4.20;;;;;;;;;;4934791;28;20088;-72
2023/06/07 12:30:22;;;;;;;12.35;4.18;;;;;;;;;;4913093;28;20483;-72
2023/06/07 12:32:48;;;;;;;13.65;3.90;;;;;;;;;;4901926;28;20143;-72
2023/06/07 12:35:14;;;;;;;13.15;3.97;;;;;;;;;;4918291;28;20051;-72
2023/06/07 12:37:40;;;;;;;14.13;3.80;;;;;;;;;;4935574;28;20133;-73
2023/06/07 12:40:08;;;;;;;15.38;4.20;;;;;;;;;;4934858;28;20451;-72
2023/06/07 12:42:40;;;;;;;10.07;3.50;;;;;;;;;;4917796;28;21782;-73
2023/06/07 12:45:09;;;;;;;16.48;4.65;;;;;;;;;;4916662;29;20074;-85
2023/06/07 12:47:35;;;;;;;16.25;4.05;;;;;;;;;;4898963;28;20500;-72
2023/06/07 12:50:03;;;;;;;11.60;3.70;;;;;;;;;;4936723;28;20039;-72
2023/06/07 12:52:29;;;;;;;14.70;3.90;;;;;;;;;;4934924;28;20051;-72
2023/06/07 12:54:55;;;;;;;14.55;3.72;;;;;;;;;;4933656;28;20039;-73
2023/06/07 12:57:21;;;;;;;13.60;3.85;;;;;;;;;;4935485;28;20102;-72
2023/06/07 12:59:47;;;;;;;14.45;4.10;;;;;;;;;;4935576;28;20051;-69
2023/06/07 13:02:13;;;;;;;12.63;4.38;;;;;;;;;;4915390;28;20054;-69
2023/06/07 13:04:40;;;;;;;13.13;3.70;;;;;;;;;;4933839;28;20484;-69
2023/06/07 13:07:07;;;;;;;11.50;4.00;;;;;;;;;;4932145;28;20063;-68
2023/06/07 13:09:33;;;;;;;12.27;3.70;;;;;;;;;;4916107;28;20047;-69
2023/06/07 13:12:02;;;;;;;12.25;4.03;;;;;;;;;;4915180;28;20051;-69
2023/06/07 13:14:28;;;;;;;12.77;3.83;;;;;;;;;;4932588;28;20043;-69
2023/06/07 13:16:54;;;;;;;14.35;3.95;;;;;;;;;;4916068;28;20047;-69
2023/06/07 13:19:20;;;;;;;14.77;4.22;;;;;;;;;;4933935;28;20050;-69
2023/06/07 13:21:48;;;;;;;12.77;4.15;;;;;;;;;;4913466;28;20047;-69
2023/06/07 13:24:14;;;;;;;18.30;3.55;;;;;;;;;;4915671;28;20059;-69
2023/06/07 13:26:40;;;;;;;17.67;4.15;;;;;;;;;;4933897;28;20039;-69
2023/06/07 13:29:07;;;;;;;14.48;3.92;;;;;;;;;;4916661;28;20043;-68
2023/06/07 13:31:33;;;;;;;13.73;4.20;;;;;;;;;;4932896;28;20043;-68
2023/06/07 13:34:01;;;;;;;14.40;3.67;;;;;;;;;;4915366;28;20050;-69
2023/06/07 13:36:27;;;;;;;16.35;3.75;;;;;;;;;;4933635;28;20277;-69
2023/06/07 13:38:54;;;;;;;14.30;3.92;;;;;;;;;;4932622;28;20054;-69
2023/06/07 13:41:22;;;;;;;12.43;3.80;;;;;;;;;;4927622;28;20288;-69
2023/06/07 13:43:48;;;;;;;13.07;3.80;;;;;;;;;;4916336;28;20680;-68
2023/06/07 13:46:15;;;;;;;18.05;4.18;;;;;;;;;;4916118;28;20075;-68
2023/06/07 13:48:41;;;;;;;13.32;3.80;;;;;;;;;;4933821;28;20043;-68
2023/06/07 13:51:09;;;;;;;11.27;3.72;;;;;;;;;;4933291;28;20047;-68
2023/06/07 13:53:35;;;;;;;12.73;3.80;;;;;;;;;;4933168;28;20070;-68
2023/06/07 13:56:01;;;;;;;11.90;3.60;;;;;;;;;;4936287;28;20047;-68
2023/06/07 13:58:31;;;;;;;14.02;3.83;;;;;;;;;;4937185;28;20050;-68
2023/06/07 14:00:58;;;;;;;10.15;4.10;;;;;;;;;;4936246;28;20051;-68
2023/06/07 14:03:25;;;;;;;13.93;4.30;;;;;;;;;;4919272;28;20039;-68
2023/06/07 14:05:51;;;;;;;11.30;3.47;;;;;;;;;;4936315;28;20047;-68
2023/06/07 14:08:18;;;;;;;11.77;4.18;;;;;;;;;;4933702;28;20239;-69
2023/06/07 14:10:44;;;;;;;11.93;3.83;;;;;;;;;;4918122;28;20122;-68
2023/06/07 14:13:10;;;;;;;12.60;3.38;;;;;;;;;;4918534;28;20174;-68
2023/06/07 14:15:36;;;;;;;13.90;3.40;;;;;;;;;;4936641;28;20078;-69
2023/06/07 14:18:02;;;;;;;11.52;3.78;;;;;;;;;;4936668;28;20047;-69
2023/06/07 14:20:28;;;;;;;15.40;4.00;;;;;;;;;;4928708;28;20535;-69
2023/06/07 14:22:54;;;;;;;12.15;4.07;;;;;;;;;;4935397;28;20086;-69
2023/06/07 14:25:20;;;;;;;13.68;4.43;;;;;;;;;;4933653;28;20360;-69
2023/06/07 14:27:47;;;;;;;12.93;4.15;;;;;;;;;;4917579;28;20099;-69
2023/06/07 14:30:15;;;;;;;20.70;4.53;;;;;;;;;;4916468;28;20044;-68
2023/06/07 14:32:41;;;;;;;14.63;4.00;;;;;;;;;;4898548;28;20059;-69
2023/06/07 14:35:07;;;;;;;11.73;4.05;;;;;;;;;;4935970;28;20043;-68
2023/06/07 14:37:33;;;;;;;12.32;4.38;;;;;;;;;;4934655;28;21753;-68
2023/06/07 14:40:00;;;;;;;13.57;3.70;;;;;;;;;;4934134;28;20487;-69
2023/06/07 14:42:26;;;;;;;16.75;4.50;;;;;;;;;;4935099;28;20158;-68
2023/06/07 14:44:55;;;;;;;7.43;3.28;;;;;;;;;;4934442;28;20057;-68